sensor_id;sensor_type;location;lat;lon;timestamp;pressure;altitude;pressure_sealevel;temperature;humidity
19108;BME280;9686;48.832;9.126;2022-10-16T00:00:31;98125.97;;;16.14;100.00
19108;BME280;9686;48.832;9.126;2022-10-16T00:02:57;98123.34;;;16.13;100.00
19108;BME280;9686;48.832;9.126;2022-10-16T00:05:23;98122.28;;;16.20;100.00
19108;BME280;9686;48.832;9.126;2022-10-16T00:07:48;98117.97;;;16.17;100.00
19108;BME280;9686;48.832;9.126;2022-10-16T00:10:14;98111.16;;;16.10;100.00
19108;BME280;9686;48.832;9.126;2022-10-16T00:12:39;98111.28;;;16.06;100.00
19108;BME280;9686;48.832;9.126;2022-10-16T00:15:05;98113.81;;;16.09;100.00
19108;BME280;9686;48.832;9.126;2022-10-16T00:17:31;98117.31;;;16.09;100.00
19108;BME280;9686;48.832;9.126;2022-10-16T00:19:56;98119.03;;;16.10;100.00
19108;BME280;9686;48.832;9.126;2022-10-16T00:22:22;98118.56;;;15.97;100.00
19108;BME280;9686;48.832;9.126;2022-10-16T00:24:47;98120.19;;;16.01;100.00
19108;BME280;9686;48.832;9.126;2022-10-16T00:27:12;98109.66;;;16.01;100.00
19108;BME280;9686;48.832;9.126;2022-10-16T00:29:37;98111.72;;;15.92;100.00
19108;BME280;9686;48.832;9.126;2022-10-16T00:32:03;98117.38;;;16.08;100.00
19108;BME280;9686;48.832;9.126;2022-10-16T00:34:28;98117.47;;;16.04;100.00
19108;BME280;9686;48.832;9.126;2022-10-16T00:36:54;98119.56;;;15.93;100.00
19108;BME280;9686;48.832;9.126;2022-10-16T00:39:19;98125.00;;;15.86;100.00
19108;BME280;9686;48.832;9.126;2022-10-16T00:41:44;98131.13;;;15.86;100.00
19108;BME280;9686;48.832;9.126;2022-10-16T00:47:09;98131.22;;;15.83;100.00
19108;BME280;9686;48.832;9.126;2022-10-16T00:49:35;98129.31;;;15.90;100.00
19108;BME280;9686;48.832;9.126;2022-10-16T00:52:00;98119.13;;;15.78;100.00
19108;BME280;9686;48.832;9.126;2022-10-16T00:54:28;98127.09;;;15.75;100.00
19108;BME280;9686;48.832;9.126;2022-10-16T00:56:55;98123.50;;;15.77;100.00
19108;BME280;9686;48.832;9.126;2022-10-16T00:59:47;98131.59;;;15.71;100.00
19108;BME280;9686;48.832;9.126;2022-10-16T01:02:15;98132.53;;;15.68;100.00
19108;BME280;9686;48.832;9.126;2022-10-16T01:04:44;98134.94;;;15.76;100.00
19108;BME280;9686;48.832;9.126;2022-10-16T01:17:40;98149.38;;;15.92;100.00
19108;BME280;9686;48.832;9.126;2022-10-16T01:20:17;98142.56;;;15.85;100.00
19108;BME280;9686;48.832;9.126;2022-10-16T01:25:39;98145.19;;;15.85;100.00
19108;BME280;9686;48.832;9.126;2022-10-16T01:28:11;98142.50;;;15.88;100.00
19108;BME280;9686;48.832;9.126;2022-10-16T01:30:40;98141.66;;;15.86;100.00
19108;BME280;9686;48.832;9.126;2022-10-16T01:33:16;98143.50;;;15.83;100.00
19108;BME280;9686;48.832;9.126;2022-10-16T01:35:46;98137.34;;;15.84;100.00
19108;BME280;9686;48.832;9.126;2022-10-16T01:38:20;98132.41;;;15.73;100.00
19108;BME280;9686;48.832;9.126;2022-10-16T01:40:51;98141.72;;;15.83;100.00
19108;BME280;9686;48.832;9.126;2022-10-16T01:43:42;98130.28;;;15.86;100.00
19108;BME280;9686;48.832;9.126;2022-10-16T01:46:06;98141.97;;;15.76;100.00
19108;BME280;9686;48.832;9.126;2022-10-16T01:48:34;98142.81;;;15.76;100.00
19108;BME280;9686;48.832;9.126;2022-10-16T01:51:05;98134.97;;;15.75;100.00
19108;BME280;9686;48.832;9.126;2022-10-16T01:53:32;98131.41;;;15.77;100.00
19108;BME280;9686;48.832;9.126;2022-10-16T01:55:59;98132.94;;;15.84;100.00
19108;BME280;9686;48.832;9.126;2022-10-16T01:58:27;98128.50;;;15.88;100.00
19108;BME280;9686;48.832;9.126;2022-10-16T02:00:56;98123.25;;;15.86;100.00
19108;BME280;9686;48.832;9.126;2022-10-16T02:03:21;98119.88;;;15.81;100.00
19108;BME280;9686;48.832;9.126;2022-10-16T02:05:51;98119.81;;;15.84;100.00
19108;BME280;9686;48.832;9.126;2022-10-16T02:08:18;98128.50;;;15.88;100.00
19108;BME280;9686;48.832;9.126;2022-10-16T02:10:44;98122.75;;;15.73;100.00
19108;BME280;9686;48.832;9.126;2022-10-16T02:13:22;98123.19;;;15.89;100.00
19108;BME280;9686;48.832;9.126;2022-10-16T02:15:50;98130.41;;;15.81;100.00
19108;BME280;9686;48.832;9.126;2022-10-16T02:18:16;98129.41;;;15.85;100.00
19108;BME280;9686;48.832;9.126;2022-10-16T02:21:23;98130.34;;;15.83;100.00
19108;BME280;9686;48.832;9.126;2022-10-16T02:24:09;98133.81;;;15.85;100.00
19108;BME280;9686;48.832;9.126;2022-10-16T02:26:49;98133.41;;;15.98;100.00
19108;BME280;9686;48.832;9.126;2022-10-16T02:29:18;98137.25;;;15.88;100.00
19108;BME280;9686;48.832;9.126;2022-10-16T02:31:49;98132.84;;;15.89;100.00
19108;BME280;9686;48.832;9.126;2022-10-16T02:34:16;98124.81;;;15.93;100.00
19108;BME280;9686;48.832;9.126;2022-10-16T02:36:44;98123.94;;;15.93;100.00
19108;BME280;9686;48.832;9.126;2022-10-16T02:39:10;98126.34;;;16.00;100.00
19108;BME280;9686;48.832;9.126;2022-10-16T02:41:37;98120.81;;;16.10;100.00
19108;BME280;9686;48.832;9.126;2022-10-16T02:44:02;98120.00;;;16.08;100.00
19108;BME280;9686;48.832;9.126;2022-10-16T02:46:28;98129.22;;;15.93;100.00
19108;BME280;9686;48.832;9.126;2022-10-16T02:48:53;98122.91;;;15.98;100.00
19108;BME280;9686;48.832;9.126;2022-10-16T02:51:18;98127.41;;;15.95;100.00
19108;BME280;9686;48.832;9.126;2022-10-16T02:53:43;98130.66;;;16.03;100.00
19108;BME280;9686;48.832;9.126;2022-10-16T02:56:09;98138.88;;;15.92;100.00
19108;BME280;9686;48.832;9.126;2022-10-16T02:58:34;98141.41;;;15.95;100.00
19108;BME280;9686;48.832;9.126;2022-10-16T03:00:59;98140.78;;;15.86;100.00
19108;BME280;9686;48.832;9.126;2022-10-16T03:03:25;98146.75;;;15.92;100.00
19108;BME280;9686;48.832;9.126;2022-10-16T03:05:50;98144.97;;;15.93;100.00
19108;BME280;9686;48.832;9.126;2022-10-16T03:08:15;98141.50;;;15.92;100.00
19108;BME280;9686;48.832;9.126;2022-10-16T03:10:41;98139.00;;;15.88;100.00
19108;BME280;9686;48.832;9.126;2022-10-16T03:13:06;98145.72;;;15.98;100.00
19108;BME280;9686;48.832;9.126;2022-10-16T03:15:32;98136.16;;;15.95;100.00
19108;BME280;9686;48.832;9.126;2022-10-16T03:17:58;98146.75;;;15.92;100.00
19108;BME280;9686;48.832;9.126;2022-10-16T03:20:24;98145.97;;;15.89;100.00
19108;BME280;9686;48.832;9.126;2022-10-16T03:22:49;98141.44;;;15.94;100.00
19108;BME280;9686;48.832;9.126;2022-10-16T03:25:14;98137.09;;;15.93;100.00
19108;BME280;9686;48.832;9.126;2022-10-16T03:27:40;98134.56;;;15.90;100.00
19108;BME280;9686;48.832;9.126;2022-10-16T03:30:05;98139.81;;;15.90;100.00
19108;BME280;9686;48.832;9.126;2022-10-16T03:32:31;98131.84;;;15.93;100.00
19108;BME280;9686;48.832;9.126;2022-10-16T03:34:56;98132.66;;;15.95;100.00
19108;BME280;9686;48.832;9.126;2022-10-16T03:37:22;98132.69;;;15.93;100.00
19108;BME280;9686;48.832;9.126;2022-10-16T03:39:47;98137.09;;;15.93;100.00
19108;BME280;9686;48.832;9.126;2022-10-16T03:42:12;98133.56;;;15.94;100.00
19108;BME280;9686;48.832;9.126;2022-10-16T03:44:38;98130.03;;;15.95;100.00
19108;BME280;9686;48.832;9.126;2022-10-16T03:47:03;98125.63;;;15.95;100.00
19108;BME280;9686;48.832;9.126;2022-10-16T03:49:28;98137.00;;;15.96;100.00
19108;BME280;9686;48.832;9.126;2022-10-16T03:51:53;98140.53;;;15.95;100.00
19108;BME280;9686;48.832;9.126;2022-10-16T03:54:19;98127.31;;;15.98;100.00
19108;BME280;9686;48.832;9.126;2022-10-16T03:56:44;98137.09;;;15.93;100.00
19108;BME280;9686;48.832;9.126;2022-10-16T03:59:09;98127.03;;;16.07;100.00
19108;BME280;9686;48.832;9.126;2022-10-16T04:01:35;98136.06;;;15.98;100.00
19108;BME280;9686;48.832;9.126;2022-10-16T04:04:00;98142.41;;;15.91;100.00
19108;BME280;9686;48.832;9.126;2022-10-16T04:06:25;98137.06;;;15.94;100.00
19108;BME280;9686;48.832;9.126;2022-10-16T04:08:51;98140.59;;;15.93;100.00
19108;BME280;9686;48.832;9.126;2022-10-16T04:11:16;98146.72;;;15.94;100.00
19108;BME280;9686;48.832;9.126;2022-10-16T04:13:41;98146.84;;;15.89;100.00
19108;BME280;9686;48.832;9.126;2022-10-16T04:16:07;98140.97;;;15.80;100.00
19108;BME280;9686;48.832;9.126;2022-10-16T04:18:32;98142.66;;;15.82;100.00
19108;BME280;9686;48.832;9.126;2022-10-16T04:21:03;98147.81;;;15.85;100.00
19108;BME280;9686;48.832;9.126;2022-10-16T04:23:28;98140.97;;;15.80;100.00
19108;BME280;9686;48.832;9.126;2022-10-16T04:25:54;98134.84;;;15.79;100.00
19108;BME280;9686;48.832;9.126;2022-10-16T04:28:19;98142.00;;;15.74;100.00
19108;BME280;9686;48.832;9.126;2022-10-16T04:30:45;98141.09;;;15.75;100.00
19108;BME280;9686;48.832;9.126;2022-10-16T04:33:10;98142.03;;;15.72;100.00
19108;BME280;9686;48.832;9.126;2022-10-16T04:35:35;98145.53;;;15.73;100.00
19108;BME280;9686;48.832;9.126;2022-10-16T04:38:00;98161.47;;;15.67;100.00
19108;BME280;9686;48.832;9.126;2022-10-16T04:40:26;98157.88;;;15.71;100.00
19108;BME280;9686;48.832;9.126;2022-10-16T04:42:51;98155.22;;;15.71;100.00
19108;BME280;9686;48.832;9.126;2022-10-16T04:45:16;98163.97;;;15.71;100.00
19108;BME280;9686;48.832;9.126;2022-10-16T04:47:42;98168.25;;;15.76;100.00
19108;BME280;9686;48.832;9.126;2022-10-16T04:50:07;98167.03;;;15.87;100.00
19108;BME280;9686;48.832;9.126;2022-10-16T04:52:33;98168.97;;;15.81;100.00
19108;BME280;9686;48.832;9.126;2022-10-16T04:54:58;98174.09;;;15.85;100.00
19108;BME280;9686;48.832;9.126;2022-10-16T04:57:27;98172.28;;;15.89;100.00
19108;BME280;9686;48.832;9.126;2022-10-16T04:59:52;98182.94;;;15.83;100.00
19108;BME280;9686;48.832;9.126;2022-10-16T05:02:18;98184.69;;;15.82;100.00
19108;BME280;9686;48.832;9.126;2022-10-16T05:04:43;98184.84;;;15.78;100.00
19108;BME280;9686;48.832;9.126;2022-10-16T05:07:08;98187.41;;;15.79;100.00
19108;BME280;9686;48.832;9.126;2022-10-16T05:09:34;98189.28;;;15.76;100.00
19108;BME280;9686;48.832;9.126;2022-10-16T05:11:59;98197.16;;;15.76;100.00
19108;BME280;9686;48.832;9.126;2022-10-16T05:14:24;98189.44;;;15.69;100.00
19108;BME280;9686;48.832;9.126;2022-10-16T05:16:50;98185.72;;;15.77;100.00
19108;BME280;9686;48.832;9.126;2022-10-16T05:19:15;98179.78;;;15.70;100.00
19108;BME280;9686;48.832;9.126;2022-10-16T05:21:40;98185.03;;;15.70;100.00
19108;BME280;9686;48.832;9.126;2022-10-16T05:24:06;98186.84;;;15.68;100.00
19108;BME280;9686;48.832;9.126;2022-10-16T05:26:31;98188.72;;;15.64;100.00
19108;BME280;9686;48.832;9.126;2022-10-16T05:28:56;98188.63;;;15.67;100.00
19108;BME280;9686;48.832;9.126;2022-10-16T05:31:22;98188.75;;;15.63;100.00
19108;BME280;9686;48.832;9.126;2022-10-16T05:33:47;98181.69;;;15.65;100.00
19108;BME280;9686;48.832;9.126;2022-10-16T05:36:12;98192.25;;;15.63;100.00
19108;BME280;9686;48.832;9.126;2022-10-16T05:38:38;98196.63;;;15.63;100.00
19108;BME280;9686;48.832;9.126;2022-10-16T05:41:04;98200.09;;;15.65;100.00
19108;BME280;9686;48.832;9.126;2022-10-16T05:43:31;98200.84;;;15.68;100.00
19108;BME280;9686;48.832;9.126;2022-10-16T05:45:59;98190.44;;;15.65;100.00
19108;BME280;9686;48.832;9.126;2022-10-16T05:48:26;98193.22;;;15.58;100.00
19108;BME280;9686;48.832;9.126;2022-10-16T05:51:05;98203.88;;;15.52;100.00
19108;BME280;9686;48.832;9.126;2022-10-16T05:53:35;98213.25;;;15.63;100.00
19108;BME280;9686;48.832;9.126;2022-10-16T05:56:01;98208.06;;;15.60;100.00
19108;BME280;9686;48.832;9.126;2022-10-16T05:58:31;98209.72;;;15.64;100.00
19108;BME280;9686;48.832;9.126;2022-10-16T06:01:05;98215.13;;;15.57;100.00
19108;BME280;9686;48.832;9.126;2022-10-16T06:03:32;98222.13;;;15.58;100.00
19108;BME280;9686;48.832;9.126;2022-10-16T06:05:57;98229.09;;;15.60;100.00
19108;BME280;9686;48.832;9.126;2022-10-16T06:08:23;98228.09;;;15.66;100.00
19108;BME280;9686;48.832;9.126;2022-10-16T06:10:57;98229.13;;;15.59;100.00
19108;BME280;9686;48.832;9.126;2022-10-16T06:13:24;98230.88;;;15.58;100.00
19108;BME280;9686;48.832;9.126;2022-10-16T06:15:50;98230.53;;;15.72;100.00
19108;BME280;9686;48.832;9.126;2022-10-16T06:18:15;98227.97;;;15.70;100.00
19108;BME280;9686;48.832;9.126;2022-10-16T06:20:40;98241.28;;;15.64;100.00
19108;BME280;9686;48.832;9.126;2022-10-16T06:23:06;98241.19;;;15.67;100.00
19108;BME280;9686;48.832;9.126;2022-10-16T06:25:31;98234.16;;;15.68;100.00
19108;BME280;9686;48.832;9.126;2022-10-16T06:27:57;98234.84;;;15.75;100.00
19108;BME280;9686;48.832;9.126;2022-10-16T06:30:22;98234.22;;;15.66;100.00
19108;BME280;9686;48.832;9.126;2022-10-16T06:32:47;98235.03;;;15.68;100.00
19108;BME280;9686;48.832;9.126;2022-10-16T06:35:12;98240.16;;;15.73;100.00
19108;BME280;9686;48.832;9.126;2022-10-16T06:37:38;98245.25;;;15.79;100.00
19108;BME280;9686;48.832;9.126;2022-10-16T06:40:03;98231.31;;;15.76;100.00
19108;BME280;9686;48.832;9.126;2022-10-16T06:42:29;98241.84;;;15.76;100.00
19108;BME280;9686;48.832;9.126;2022-10-16T06:44:55;98242.41;;;15.88;100.00
19108;BME280;9686;48.832;9.126;2022-10-16T06:47:20;98248.47;;;15.90;100.00
19108;BME280;9686;48.832;9.126;2022-10-16T06:49:45;98252.03;;;15.88;100.00
19108;BME280;9686;48.832;9.126;2022-10-16T06:52:11;98263.22;;;15.96;100.00
19108;BME280;9686;48.832;9.126;2022-10-16T06:54:36;98265.88;;;15.94;100.00
19108;BME280;9686;48.832;9.126;2022-10-16T06:57:01;98267.53;;;15.98;100.00
19108;BME280;9686;48.832;9.126;2022-10-16T06:59:27;98258.78;;;15.98;100.00
19108;BME280;9686;48.832;9.126;2022-10-16T07:01:52;98269.03;;;16.07;100.00
19108;BME280;9686;48.832;9.126;2022-10-16T07:04:17;98276.75;;;16.13;100.00
19108;BME280;9686;48.832;9.126;2022-10-16T07:06:42;98274.84;;;16.20;100.00
19108;BME280;9686;48.832;9.126;2022-10-16T07:09:09;98276.34;;;16.28;100.00
19108;BME280;9686;48.832;9.126;2022-10-16T07:11:37;98271.94;;;16.29;100.00
19108;BME280;9686;48.832;9.126;2022-10-16T07:14:03;98269.78;;;16.43;100.00
19108;BME280;9686;48.832;9.126;2022-10-16T07:16:30;98265.34;;;16.45;100.00
19108;BME280;9686;48.832;9.126;2022-10-16T07:19:01;98276.56;;;16.52;100.00
19108;BME280;9686;48.832;9.126;2022-10-16T07:21:32;98280.97;;;16.51;100.00
19108;BME280;9686;48.832;9.126;2022-10-16T07:24:00;98285.25;;;16.54;100.00
19108;BME280;9686;48.832;9.126;2022-10-16T07:26:28;98294.88;;;16.55;100.00
19108;BME280;9686;48.832;9.126;2022-10-16T07:28:55;98294.88;;;16.55;100.00
19108;BME280;9686;48.832;9.126;2022-10-16T07:31:21;98302.69;;;16.58;100.00
19108;BME280;9686;48.832;9.126;2022-10-16T07:33:47;98305.41;;;16.55;100.00
19108;BME280;9686;48.832;9.126;2022-10-16T07:36:17;98301.91;;;16.54;100.00
19108;BME280;9686;48.832;9.126;2022-10-16T07:38:45;98299.19;;;16.57;100.00
19108;BME280;9686;48.832;9.126;2022-10-16T07:41:13;98298.28;;;16.58;100.00
19108;BME280;9686;48.832;9.126;2022-10-16T07:43:39;98294.66;;;16.62;100.00
19108;BME280;9686;48.832;9.126;2022-10-16T07:46:05;98297.22;;;16.65;100.00
19108;BME280;9686;48.832;9.126;2022-10-16T07:48:32;98299.75;;;16.70;100.00
19108;BME280;9686;48.832;9.126;2022-10-16T07:51:01;98308.47;;;16.72;100.00
19108;BME280;9686;48.832;9.126;2022-10-16T07:53:27;98297.94;;;16.72;100.00
19108;BME280;9686;48.832;9.126;2022-10-16T07:56:01;98304.84;;;16.76;100.00
19108;BME280;9686;48.832;9.126;2022-10-16T07:58:27;98315.03;;;16.87;100.00
19108;BME280;9686;48.832;9.126;2022-10-16T08:00:54;98314.03;;;16.92;100.00
19108;BME280;9686;48.832;9.126;2022-10-16T08:03:19;98316.41;;;17.00;100.00
19108;BME280;9686;48.832;9.126;2022-10-16T08:05:44;98318.09;;;17.03;100.00
19108;BME280;9686;48.832;9.126;2022-10-16T08:08:14;98311.81;;;17.07;100.00
19108;BME280;9686;48.832;9.126;2022-10-16T08:10:40;98309.03;;;17.11;100.00
19108;BME280;9686;48.832;9.126;2022-10-16T08:13:05;98308.56;;;17.26;100.00
19108;BME280;9686;48.832;9.126;2022-10-16T08:15:30;98307.22;;;17.41;100.00
19108;BME280;9686;48.832;9.126;2022-10-16T08:18:03;98302.63;;;17.48;100.00
19108;BME280;9686;48.832;9.126;2022-10-16T08:20:30;98304.94;;;17.57;100.00
19108;BME280;9686;48.832;9.126;2022-10-16T08:22:55;98311.75;;;17.64;100.00
19108;BME280;9686;48.832;9.126;2022-10-16T08:25:22;98313.38;;;17.70;100.00
19108;BME280;9686;48.832;9.126;2022-10-16T08:27:47;98328.00;;;17.78;100.00
19108;BME280;9686;48.832;9.126;2022-10-16T08:30:13;98329.47;;;17.87;100.00
19108;BME280;9686;48.832;9.126;2022-10-16T08:32:39;98330.00;;;17.98;100.00
19108;BME280;9686;48.832;9.126;2022-10-16T08:35:06;98318.38;;;18.04;100.00
19108;BME280;9686;48.832;9.126;2022-10-16T08:37:32;98325.19;;;18.09;100.00
19108;BME280;9686;48.832;9.126;2022-10-16T08:39:58;98330.22;;;18.17;100.00
19108;BME280;9686;48.832;9.126;2022-10-16T08:45:19;98326.28;;;18.29;100.00
19108;BME280;9686;48.832;9.126;2022-10-16T08:50:26;98322.34;;;18.40;100.00
19108;BME280;9686;48.832;9.126;2022-10-16T08:52:53;98321.13;;;18.51;100.00
19108;BME280;9686;48.832;9.126;2022-10-16T08:55:33;98318.19;;;18.58;100.00
19108;BME280;9686;48.832;9.126;2022-10-16T08:58:03;98319.84;;;18.61;100.00
19108;BME280;9686;48.832;9.126;2022-10-16T09:00:35;98320.88;;;18.57;100.00
19108;BME280;9686;48.832;9.126;2022-10-16T09:03:06;98322.56;;;18.59;100.00
19108;BME280;9686;48.832;9.126;2022-10-16T09:05:49;98318.00;;;18.64;100.00
19108;BME280;9686;48.832;9.126;2022-10-16T09:08:30;98311.63;;;18.70;100.00
19108;BME280;9686;48.832;9.126;2022-10-16T09:16:30;98302.44;;;18.80;100.00
19108;BME280;9686;48.832;9.126;2022-10-16T09:19:16;98316.34;;;18.85;100.00
19108;BME280;9686;48.832;9.126;2022-10-16T09:21:45;98322.38;;;18.89;100.00
19108;BME280;9686;48.832;9.126;2022-10-16T09:26:42;98321.06;;;19.00;100.00
19108;BME280;9686;48.832;9.126;2022-10-16T09:29:12;98322.78;;;19.01;100.00
19108;BME280;9686;48.832;9.126;2022-10-16T09:31:38;98334.47;;;18.94;100.00
19108;BME280;9686;48.832;9.126;2022-10-16T09:34:05;98333.69;;;18.92;100.00
19108;BME280;9686;48.832;9.126;2022-10-16T09:36:39;98323.84;;;18.96;100.00
19108;BME280;9686;48.832;9.126;2022-10-16T09:39:08;98328.34;;;18.94;100.00
19108;BME280;9686;48.832;9.126;2022-10-16T09:41:38;98328.94;;;19.02;100.00
19108;BME280;9686;48.832;9.126;2022-10-16T09:44:06;98331.72;;;18.97;100.00
19108;BME280;9686;48.832;9.126;2022-10-16T09:46:40;98324.94;;;18.90;100.00
19108;BME280;9686;48.832;9.126;2022-10-16T09:49:26;98339.69;;;18.96;100.00
19108;BME280;9686;48.832;9.126;2022-10-16T09:52:09;98350.13;;;19.00;100.00
19108;BME280;9686;48.832;9.126;2022-10-16T09:54:36;98347.00;;;19.13;100.00
19108;BME280;9686;48.832;9.126;2022-10-16T09:57:12;98349.75;;;19.09;100.00
19108;BME280;9686;48.832;9.126;2022-10-16T09:59:49;98345.16;;;19.15;100.00
19108;BME280;9686;48.832;9.126;2022-10-16T10:02:17;98343.31;;;19.17;100.00
19108;BME280;9686;48.832;9.126;2022-10-16T10:04:49;98355.50;;;19.21;100.00
19108;BME280;9686;48.832;9.126;2022-10-16T10:07:24;98351.78;;;19.26;100.00
19108;BME280;9686;48.832;9.126;2022-10-16T10:09:50;98351.59;;;19.31;100.00
19108;BME280;9686;48.832;9.126;2022-10-16T10:12:21;98350.47;;;19.36;100.00
19108;BME280;9686;48.832;9.126;2022-10-16T10:14:49;98348.56;;;19.40;100.00
19108;BME280;9686;48.832;9.126;2022-10-16T10:17:18;98350.16;;;19.44;100.00
19108;BME280;9686;48.832;9.126;2022-10-16T10:19:57;98351.19;;;19.63;100.00
19108;BME280;9686;48.832;9.126;2022-10-16T10:30:22;98339.72;;;20.07;100.00
19108;BME280;9686;48.832;9.126;2022-10-16T10:33:18;98338.66;;;20.11;100.00
19108;BME280;9686;48.832;9.126;2022-10-16T10:36:09;98347.13;;;20.19;100.00
19108;BME280;9686;48.832;9.126;2022-10-16T10:38:44;98334.91;;;20.37;100.00
19108;BME280;9686;48.832;9.126;2022-10-16T10:41:17;98337.97;;;20.48;100.00
19108;BME280;9686;48.832;9.126;2022-10-16T10:55:26;98326.97;;;21.15;100.00
19108;BME280;9686;48.832;9.126;2022-10-16T11:08:46;98325.25;;;21.51;100.00
19108;BME280;9686;48.832;9.126;2022-10-16T11:11:44;98320.94;;;21.49;100.00
19108;BME280;9686;48.832;9.126;2022-10-16T11:14:31;98325.13;;;21.72;100.00
19108;BME280;9686;48.832;9.126;2022-10-16T11:17:17;98328.03;;;21.84;100.00
19108;BME280;9686;48.832;9.126;2022-10-16T11:19:49;98318.72;;;21.76;100.00
19108;BME280;9686;48.832;9.126;2022-10-16T11:30:03;98319.19;;;21.84;100.00
19108;BME280;9686;48.832;9.126;2022-10-16T11:32:35;98322.09;;;21.79;100.00
19108;BME280;9686;48.832;9.126;2022-10-16T11:35:13;98309.41;;;21.86;100.00
19108;BME280;9686;48.832;9.126;2022-10-16T11:37:43;98319.88;;;22.06;100.00
19108;BME280;9686;48.832;9.126;2022-10-16T11:40:22;98315.06;;;22.14;100.00
19108;BME280;9686;48.832;9.126;2022-10-16T11:42:54;98312.78;;;22.24;100.00
19108;BME280;9686;48.832;9.126;2022-10-16T11:45:45;98313.41;;;22.29;100.00
19108;BME280;9686;48.832;9.126;2022-10-16T11:50:43;98315.66;;;22.37;100.00
19108;BME280;9686;48.832;9.126;2022-10-16T11:53:28;98319.81;;;22.25;100.00
19108;BME280;9686;48.832;9.126;2022-10-16T11:55:56;98323.16;;;22.29;100.00
19108;BME280;9686;48.832;9.126;2022-10-16T11:58:26;98319.66;;;22.45;100.00
19108;BME280;9686;48.832;9.126;2022-10-16T12:01:03;98311.34;;;22.52;100.00
19108;BME280;9686;48.832;9.126;2022-10-16T12:08:44;98304.84;;;22.57;100.00
19108;BME280;9686;48.832;9.126;2022-10-16T12:16:37;98303.78;;;22.44;100.00
19108;BME280;9686;48.832;9.126;2022-10-16T12:19:11;98295.97;;;22.41;100.00
19108;BME280;9686;48.832;9.126;2022-10-16T12:21:37;98298.84;;;22.36;100.00
19108;BME280;9686;48.832;9.126;2022-10-16T12:24:03;98298.06;;;22.34;100.00
19108;BME280;9686;48.832;9.126;2022-10-16T12:26:33;98299.78;;;22.53;100.00
19108;BME280;9686;48.832;9.126;2022-10-16T12:29:23;98308.09;;;22.62;100.00
19108;BME280;9686;48.832;9.126;2022-10-16T12:31:53;98307.66;;;22.54;100.00
19108;BME280;9686;48.832;9.126;2022-10-16T12:34:40;98314.91;;;22.68;100.00
19108;BME280;9686;48.832;9.126;2022-10-16T12:37:14;98309.09;;;22.77;100.00
19108;BME280;9686;48.832;9.126;2022-10-16T12:39:43;98303.59;;;22.64;100.00
19108;BME280;9686;48.832;9.126;2022-10-16T12:42:30;98301.22;;;22.75;100.00
19108;BME280;9686;48.832;9.126;2022-10-16T12:44:56;98301.50;;;22.87;100.00
19108;BME280;9686;48.832;9.126;2022-10-16T12:47:23;98304.81;;;23.07;100.00
19108;BME280;9686;48.832;9.126;2022-10-16T12:49:52;98300.63;;;23.19;100.00
19108;BME280;9686;48.832;9.126;2022-10-16T12:54:50;98312.53;;;23.28;100.00
19108;BME280;9686;48.832;9.126;2022-10-16T13:05:05;98316.41;;;23.22;100.00
19108;BME280;9686;48.832;9.126;2022-10-16T13:12:56;98311.84;;;23.08;100.00
19108;BME280;9686;48.832;9.126;2022-10-16T13:18:21;98317.38;;;22.88;100.00
19108;BME280;9686;48.832;9.126;2022-10-16T13:23:21;98322.47;;;23.08;100.00
19108;BME280;9686;48.832;9.126;2022-10-16T13:28:38;98318.47;;;22.84;100.00
19108;BME280;9686;48.832;9.126;2022-10-16T13:31:04;98312.94;;;22.71;100.00
19108;BME280;9686;48.832;9.126;2022-10-16T13:33:35;98312.19;;;22.69;100.00
19108;BME280;9686;48.832;9.126;2022-10-16T13:36:02;98324.78;;;22.66;100.00
19108;BME280;9686;48.832;9.126;2022-10-16T13:38:30;98324.78;;;22.66;100.00
19108;BME280;9686;48.832;9.126;2022-10-16T13:41:13;98316.41;;;22.56;100.00
19108;BME280;9686;48.832;9.126;2022-10-16T13:43:47;98327.97;;;22.55;100.00
19108;BME280;9686;48.832;9.126;2022-10-16T13:46:16;98326.97;;;22.58;100.00
19108;BME280;9686;48.832;9.126;2022-10-16T13:48:42;98327.97;;;22.55;100.00
19108;BME280;9686;48.832;9.126;2022-10-16T13:51:16;98333.69;;;22.65;100.00
19108;BME280;9686;48.832;9.126;2022-10-16T13:53:42;98329.06;;;22.68;100.00
19108;BME280;9686;48.832;9.126;2022-10-16T13:56:13;98329.34;;;22.80;100.00
19108;BME280;9686;48.832;9.126;2022-10-16T13:58:39;98317.00;;;22.78;100.00
19108;BME280;9686;48.832;9.126;2022-10-16T14:01:29;98311.75;;;22.77;100.00
19108;BME280;9686;48.832;9.126;2022-10-16T14:04:01;98315.22;;;22.62;100.00
19108;BME280;9686;48.832;9.126;2022-10-16T14:06:28;98314.44;;;22.60;100.00
19108;BME280;9686;48.832;9.126;2022-10-16T14:09:21;98315.34;;;22.43;100.00
19108;BME280;9686;48.832;9.126;2022-10-16T14:11:53;98318.47;;;22.34;100.00
19108;BME280;9686;48.832;9.126;2022-10-16T14:14:20;98324.09;;;22.28;100.00
19108;BME280;9686;48.832;9.126;2022-10-16T14:16:45;98320.84;;;22.23;100.00
19108;BME280;9686;48.832;9.126;2022-10-16T14:19:27;98322.88;;;22.18;100.00
19108;BME280;9686;48.832;9.126;2022-10-16T14:21:54;98327.41;;;22.15;100.00
19108;BME280;9686;48.832;9.126;2022-10-16T14:26:50;98333.25;;;22.05;100.00
19108;BME280;9686;48.832;9.126;2022-10-16T14:29:19;98332.50;;;22.01;100.00
19108;BME280;9686;48.832;9.126;2022-10-16T14:34:32;98340.22;;;21.89;100.00
19108;BME280;9686;48.832;9.126;2022-10-16T14:37:01;98337.81;;;22.01;100.00
19108;BME280;9686;48.832;9.126;2022-10-16T14:39:32;98339.31;;;22.07;100.00
19108;BME280;9686;48.832;9.126;2022-10-16T14:41:58;98337.63;;;22.06;100.00
19108;BME280;9686;48.832;9.126;2022-10-16T14:44:29;98339.09;;;22.11;100.00
19108;BME280;9686;48.832;9.126;2022-10-16T14:46:55;98340.53;;;22.19;100.00
19108;BME280;9686;48.832;9.126;2022-10-16T14:49:22;98335.22;;;22.19;100.00
19108;BME280;9686;48.832;9.126;2022-10-16T14:51:48;98349.44;;;22.18;100.00
19108;BME280;9686;48.832;9.126;2022-10-16T14:54:16;98345.06;;;22.17;100.00
19108;BME280;9686;48.832;9.126;2022-10-16T14:59:28;98342.06;;;22.23;100.00
19108;BME280;9686;48.832;9.126;2022-10-16T15:01:54;98335.66;;;22.27;100.00